sensor_id;sensor_type;location;lat;lon;timestamp;P1;durP1;ratioP1;P2;durP2;ratioP2
11731;SDS011;5922;53.734;10.258;2023-08-06T00:00:01;5.30;;;2.53;;
11731;SDS011;5922;53.734;10.258;2023-08-06T00:02:29;4.20;;;2.50;;
11731;SDS011;5922;53.734;10.258;2023-08-06T00:04:57;3.50;;;2.70;;
11731;SDS011;5922;53.734;10.258;2023-08-06T00:07:25;3.67;;;2.87;;
11731;SDS011;5922;53.734;10.258;2023-08-06T00:09:52;4.30;;;2.60;;
11731;SDS011;5922;53.734;10.258;2023-08-06T00:12:22;6.30;;;2.50;;
11731;SDS011;5922;53.734;10.258;2023-08-06T00:14:50;4.87;;;2.80;;
11731;SDS011;5922;53.734;10.258;2023-08-06T00:17:17;4.93;;;2.70;;
11731;SDS011;5922;53.734;10.258;2023-08-06T00:19:46;4.03;;;2.63;;
11731;SDS011;5922;53.734;10.258;2023-08-06T00:22:16;4.13;;;2.60;;
11731;SDS011;5922;53.734;10.258;2023-08-06T00:24:43;4.77;;;2.47;;
11731;SDS011;5922;53.734;10.258;2023-08-06T00:27:11;3.67;;;2.70;;
11731;SDS011;5922;53.734;10.258;2023-08-06T00:29:38;2.93;;;2.63;;
11731;SDS011;5922;53.734;10.258;2023-08-06T00:32:05;3.80;;;2.80;;
11731;SDS011;5922;53.734;10.258;2023-08-06T00:34:32;3.97;;;3.00;;
11731;SDS011;5922;53.734;10.258;2023-08-06T00:37:00;3.77;;;2.80;;
11731;SDS011;5922;53.734;10.258;2023-08-06T00:39:28;4.60;;;2.90;;
11731;SDS011;5922;53.734;10.258;2023-08-06T00:41:56;2.90;;;2.70;;
11731;SDS011;5922;53.734;10.258;2023-08-06T00:44:23;3.00;;;2.60;;
11731;SDS011;5922;53.734;10.258;2023-08-06T00:46:51;7.87;;;3.00;;
11731;SDS011;5922;53.734;10.258;2023-08-06T00:49:18;5.80;;;2.60;;
11731;SDS011;5922;53.734;10.258;2023-08-06T00:51:45;3.60;;;2.80;;
11731;SDS011;5922;53.734;10.258;2023-08-06T00:54:12;7.03;;;3.10;;
11731;SDS011;5922;53.734;10.258;2023-08-06T00:56:41;2.80;;;2.60;;
11731;SDS011;5922;53.734;10.258;2023-08-06T00:59:09;4.53;;;2.73;;
11731;SDS011;5922;53.734;10.258;2023-08-06T01:01:51;3.77;;;2.87;;
11731;SDS011;5922;53.734;10.258;2023-08-06T01:04:18;3.87;;;2.67;;
11731;SDS011;5922;53.734;10.258;2023-08-06T01:06:46;3.33;;;2.70;;
11731;SDS011;5922;53.734;10.258;2023-08-06T01:09:19;4.63;;;2.60;;
11731;SDS011;5922;53.734;10.258;2023-08-06T01:11:53;2.80;;;2.60;;
11731;SDS011;5922;53.734;10.258;2023-08-06T01:14:21;4.67;;;2.43;;
11731;SDS011;5922;53.734;10.258;2023-08-06T01:16:52;3.23;;;2.60;;
11731;SDS011;5922;53.734;10.258;2023-08-06T01:19:21;5.47;;;3.00;;
11731;SDS011;5922;53.734;10.258;2023-08-06T01:21:49;4.17;;;3.03;;
11731;SDS011;5922;53.734;10.258;2023-08-06T01:24:17;5.87;;;3.20;;
11731;SDS011;5922;53.734;10.258;2023-08-06T01:26:45;8.27;;;2.80;;
11731;SDS011;5922;53.734;10.258;2023-08-06T01:29:17;6.23;;;3.20;;
11731;SDS011;5922;53.734;10.258;2023-08-06T01:31:47;5.53;;;3.00;;
11731;SDS011;5922;53.734;10.258;2023-08-06T01:34:17;3.73;;;2.90;;
11731;SDS011;5922;53.734;10.258;2023-08-06T01:36:44;4.07;;;2.87;;
11731;SDS011;5922;53.734;10.258;2023-08-06T01:39:13;4.17;;;2.77;;
11731;SDS011;5922;53.734;10.258;2023-08-06T01:41:40;4.30;;;2.77;;
11731;SDS011;5922;53.734;10.258;2023-08-06T01:44:07;2.67;;;2.47;;
11731;SDS011;5922;53.734;10.258;2023-08-06T01:46:34;3.40;;;2.80;;
11731;SDS011;5922;53.734;10.258;2023-08-06T01:49:02;3.50;;;3.00;;
11731;SDS011;5922;53.734;10.258;2023-08-06T01:51:29;3.77;;;2.90;;
11731;SDS011;5922;53.734;10.258;2023-08-06T01:53:56;3.70;;;2.90;;
11731;SDS011;5922;53.734;10.258;2023-08-06T01:56:25;3.23;;;2.93;;
11731;SDS011;5922;53.734;10.258;2023-08-06T01:58:52;3.97;;;2.73;;
11731;SDS011;5922;53.734;10.258;2023-08-06T02:01:19;4.03;;;3.07;;
11731;SDS011;5922;53.734;10.258;2023-08-06T02:03:46;5.03;;;3.00;;
11731;SDS011;5922;53.734;10.258;2023-08-06T02:06:13;6.43;;;3.00;;
11731;SDS011;5922;53.734;10.258;2023-08-06T02:08:41;5.40;;;3.07;;
11731;SDS011;5922;53.734;10.258;2023-08-06T02:11:08;3.80;;;2.97;;
11731;SDS011;5922;53.734;10.258;2023-08-06T02:13:37;3.37;;;2.97;;
11731;SDS011;5922;53.734;10.258;2023-08-06T02:16:06;3.60;;;3.30;;
11731;SDS011;5922;53.734;10.258;2023-08-06T02:18:34;5.77;;;3.13;;
11731;SDS011;5922;53.734;10.258;2023-08-06T02:21:01;5.90;;;2.80;;
11731;SDS011;5922;53.734;10.258;2023-08-06T02:23:29;5.60;;;3.37;;
11731;SDS011;5922;53.734;10.258;2023-08-06T02:25:56;4.60;;;2.80;;
11731;SDS011;5922;53.734;10.258;2023-08-06T02:28:24;3.80;;;3.10;;
11731;SDS011;5922;53.734;10.258;2023-08-06T02:30:52;6.77;;;3.10;;
11731;SDS011;5922;53.734;10.258;2023-08-06T02:33:20;4.00;;;2.87;;
11731;SDS011;5922;53.734;10.258;2023-08-06T02:35:47;5.23;;;3.57;;
11731;SDS011;5922;53.734;10.258;2023-08-06T02:38:15;6.30;;;3.10;;
11731;SDS011;5922;53.734;10.258;2023-08-06T02:40:45;3.87;;;2.80;;
11731;SDS011;5922;53.734;10.258;2023-08-06T02:43:12;4.67;;;2.70;;
11731;SDS011;5922;53.734;10.258;2023-08-06T02:45:40;6.43;;;2.77;;
11731;SDS011;5922;53.734;10.258;2023-08-06T02:48:08;4.87;;;3.23;;
11731;SDS011;5922;53.734;10.258;2023-08-06T02:50:38;3.30;;;2.90;;
11731;SDS011;5922;53.734;10.258;2023-08-06T02:53:06;4.83;;;3.13;;
11731;SDS011;5922;53.734;10.258;2023-08-06T02:55:33;5.30;;;3.27;;
11731;SDS011;5922;53.734;10.258;2023-08-06T02:58:01;3.70;;;3.00;;
11731;SDS011;5922;53.734;10.258;2023-08-06T03:00:28;5.00;;;2.67;;
11731;SDS011;5922;53.734;10.258;2023-08-06T03:02:55;3.43;;;3.00;;
11731;SDS011;5922;53.734;10.258;2023-08-06T03:05:24;4.53;;;2.70;;
11731;SDS011;5922;53.734;10.258;2023-08-06T03:07:51;7.07;;;2.97;;
11731;SDS011;5922;53.734;10.258;2023-08-06T03:10:17;7.43;;;2.70;;
11731;SDS011;5922;53.734;10.258;2023-08-06T03:12:45;4.27;;;2.70;;
11731;SDS011;5922;53.734;10.258;2023-08-06T03:15:12;5.33;;;2.93;;
11731;SDS011;5922;53.734;10.258;2023-08-06T03:17:39;3.83;;;2.67;;
11731;SDS011;5922;53.734;10.258;2023-08-06T03:20:07;4.23;;;2.60;;
11731;SDS011;5922;53.734;10.258;2023-08-06T03:22:35;4.57;;;2.60;;
11731;SDS011;5922;53.734;10.258;2023-08-06T03:25:03;5.93;;;2.80;;
11731;SDS011;5922;53.734;10.258;2023-08-06T03:27:30;5.50;;;3.03;;
11731;SDS011;5922;53.734;10.258;2023-08-06T03:29:58;3.60;;;2.90;;
11731;SDS011;5922;53.734;10.258;2023-08-06T03:32:26;5.70;;;2.43;;
11731;SDS011;5922;53.734;10.258;2023-08-06T03:34:53;3.07;;;2.80;;
11731;SDS011;5922;53.734;10.258;2023-08-06T03:37:20;5.23;;;2.80;;
11731;SDS011;5922;53.734;10.258;2023-08-06T03:39:49;5.40;;;3.20;;
11731;SDS011;5922;53.734;10.258;2023-08-06T03:42:16;5.20;;;2.67;;
11731;SDS011;5922;53.734;10.258;2023-08-06T03:44:43;4.23;;;2.97;;
11731;SDS011;5922;53.734;10.258;2023-08-06T03:47:10;3.53;;;2.80;;
11731;SDS011;5922;53.734;10.258;2023-08-06T03:49:38;3.77;;;2.70;;
11731;SDS011;5922;53.734;10.258;2023-08-06T03:52:05;5.33;;;2.80;;
11731;SDS011;5922;53.734;10.258;2023-08-06T03:54:32;5.17;;;2.90;;
11731;SDS011;5922;53.734;10.258;2023-08-06T03:57:02;5.63;;;2.90;;
11731;SDS011;5922;53.734;10.258;2023-08-06T03:59:29;5.37;;;3.10;;
11731;SDS011;5922;53.734;10.258;2023-08-06T04:01:56;5.43;;;3.10;;
11731;SDS011;5922;53.734;10.258;2023-08-06T04:04:23;4.57;;;2.70;;
11731;SDS011;5922;53.734;10.258;2023-08-06T04:06:50;5.00;;;3.00;;
11731;SDS011;5922;53.734;10.258;2023-08-06T04:09:18;5.43;;;2.67;;
11731;SDS011;5922;53.734;10.258;2023-08-06T04:11:45;6.33;;;3.17;;
11731;SDS011;5922;53.734;10.258;2023-08-06T04:14:13;8.23;;;2.97;;
11731;SDS011;5922;53.734;10.258;2023-08-06T04:16:41;5.30;;;2.87;;
11731;SDS011;5922;53.734;10.258;2023-08-06T04:19:08;4.40;;;2.80;;
11731;SDS011;5922;53.734;10.258;2023-08-06T04:21:36;9.43;;;3.40;;
11731;SDS011;5922;53.734;10.258;2023-08-06T04:24:03;5.13;;;3.17;;
11731;SDS011;5922;53.734;10.258;2023-08-06T04:26:30;6.23;;;3.23;;
11731;SDS011;5922;53.734;10.258;2023-08-06T04:28:57;6.00;;;2.93;;
11731;SDS011;5922;53.734;10.258;2023-08-06T04:31:26;5.67;;;3.30;;
11731;SDS011;5922;53.734;10.258;2023-08-06T04:33:53;3.80;;;3.40;;
11731;SDS011;5922;53.734;10.258;2023-08-06T04:36:21;6.40;;;3.83;;
11731;SDS011;5922;53.734;10.258;2023-08-06T04:38:48;4.23;;;3.27;;
11731;SDS011;5922;53.734;10.258;2023-08-06T04:41:16;5.20;;;3.57;;
11731;SDS011;5922;53.734;10.258;2023-08-06T04:43:43;6.43;;;3.53;;
11731;SDS011;5922;53.734;10.258;2023-08-06T04:46:11;8.13;;;3.23;;
11731;SDS011;5922;53.734;10.258;2023-08-06T04:48:39;4.40;;;3.50;;
11731;SDS011;5922;53.734;10.258;2023-08-06T04:51:06;6.23;;;3.63;;
11731;SDS011;5922;53.734;10.258;2023-08-06T04:53:34;5.23;;;3.50;;
11731;SDS011;5922;53.734;10.258;2023-08-06T04:56:01;3.93;;;3.17;;
11731;SDS011;5922;53.734;10.258;2023-08-06T04:58:28;4.00;;;3.00;;
11731;SDS011;5922;53.734;10.258;2023-08-06T05:00:55;6.87;;;4.20;;
11731;SDS011;5922;53.734;10.258;2023-08-06T05:03:23;4.23;;;3.37;;
11731;SDS011;5922;53.734;10.258;2023-08-06T05:05:58;5.83;;;4.00;;
11731;SDS011;5922;53.734;10.258;2023-08-06T05:08:41;8.00;;;3.67;;
11731;SDS011;5922;53.734;10.258;2023-08-06T05:11:08;6.07;;;3.47;;
11731;SDS011;5922;53.734;10.258;2023-08-06T05:13:36;6.40;;;3.90;;
11731;SDS011;5922;53.734;10.258;2023-08-06T05:16:07;5.27;;;3.47;;
11731;SDS011;5922;53.734;10.258;2023-08-06T05:18:34;5.93;;;3.53;;
11731;SDS011;5922;53.734;10.258;2023-08-06T05:21:04;5.23;;;3.70;;
11731;SDS011;5922;53.734;10.258;2023-08-06T05:23:31;4.20;;;3.50;;
11731;SDS011;5922;53.734;10.258;2023-08-06T05:26:00;6.67;;;3.63;;
11731;SDS011;5922;53.734;10.258;2023-08-06T05:28:27;7.23;;;4.20;;
11731;SDS011;5922;53.734;10.258;2023-08-06T05:30:55;4.63;;;3.80;;
11731;SDS011;5922;53.734;10.258;2023-08-06T05:33:36;7.07;;;4.00;;
11731;SDS011;5922;53.734;10.258;2023-08-06T05:36:12;9.20;;;3.87;;
11731;SDS011;5922;53.734;10.258;2023-08-06T05:38:39;3.83;;;3.37;;
11731;SDS011;5922;53.734;10.258;2023-08-06T05:41:09;5.83;;;3.83;;
11731;SDS011;5922;53.734;10.258;2023-08-06T05:43:37;5.07;;;3.30;;
11731;SDS011;5922;53.734;10.258;2023-08-06T05:46:04;5.77;;;3.70;;
11731;SDS011;5922;53.734;10.258;2023-08-06T05:48:31;5.53;;;3.63;;
11731;SDS011;5922;53.734;10.258;2023-08-06T05:50:58;7.07;;;3.77;;
11731;SDS011;5922;53.734;10.258;2023-08-06T05:53:27;5.33;;;3.70;;
11731;SDS011;5922;53.734;10.258;2023-08-06T05:55:54;5.03;;;4.00;;
11731;SDS011;5922;53.734;10.258;2023-08-06T05:58:22;4.20;;;3.80;;
11731;SDS011;5922;53.734;10.258;2023-08-06T06:00:51;8.87;;;3.63;;
11731;SDS011;5922;53.734;10.258;2023-08-06T06:03:18;4.63;;;3.77;;
11731;SDS011;5922;53.734;10.258;2023-08-06T06:05:45;6.37;;;3.97;;
11731;SDS011;5922;53.734;10.258;2023-08-06T06:08:12;5.53;;;3.63;;
11731;SDS011;5922;53.734;10.258;2023-08-06T06:10:41;6.83;;;3.70;;
11731;SDS011;5922;53.734;10.258;2023-08-06T06:13:08;6.33;;;3.60;;
11731;SDS011;5922;53.734;10.258;2023-08-06T06:15:36;6.93;;;3.67;;
11731;SDS011;5922;53.734;10.258;2023-08-06T06:18:03;4.37;;;3.60;;
11731;SDS011;5922;53.734;10.258;2023-08-06T06:20:35;5.63;;;3.73;;
11731;SDS011;5922;53.734;10.258;2023-08-06T06:23:02;5.40;;;3.80;;
11731;SDS011;5922;53.734;10.258;2023-08-06T06:25:30;6.10;;;3.70;;
11731;SDS011;5922;53.734;10.258;2023-08-06T06:27:58;5.50;;;3.63;;
11731;SDS011;5922;53.734;10.258;2023-08-06T06:30:25;4.33;;;3.90;;
11731;SDS011;5922;53.734;10.258;2023-08-06T06:32:53;6.77;;;4.10;;
11731;SDS011;5922;53.734;10.258;2023-08-06T06:35:20;7.63;;;3.60;;
11731;SDS011;5922;53.734;10.258;2023-08-06T06:37:50;7.87;;;4.00;;
11731;SDS011;5922;53.734;10.258;2023-08-06T06:40:39;4.23;;;3.73;;
11731;SDS011;5922;53.734;10.258;2023-08-06T06:43:14;6.33;;;4.37;;
11731;SDS011;5922;53.734;10.258;2023-08-06T06:45:46;4.03;;;3.63;;
11731;SDS011;5922;53.734;10.258;2023-08-06T06:48:20;4.80;;;4.00;;
11731;SDS011;5922;53.734;10.258;2023-08-06T06:51:07;6.10;;;3.90;;
11731;SDS011;5922;53.734;10.258;2023-08-06T06:53:54;4.70;;;3.70;;
11731;SDS011;5922;53.734;10.258;2023-08-06T06:56:30;6.07;;;3.93;;
11731;SDS011;5922;53.734;10.258;2023-08-06T07:01:54;4.80;;;3.90;;
11731;SDS011;5922;53.734;10.258;2023-08-06T07:04:24;4.87;;;4.03;;
11731;SDS011;5922;53.734;10.258;2023-08-06T07:06:53;4.53;;;3.63;;
11731;SDS011;5922;53.734;10.258;2023-08-06T07:09:31;6.83;;;4.10;;
11731;SDS011;5922;53.734;10.258;2023-08-06T07:18:16;4.50;;;3.80;;
11731;SDS011;5922;53.734;10.258;2023-08-06T07:20:52;5.77;;;3.97;;
11731;SDS011;5922;53.734;10.258;2023-08-06T07:23:24;5.97;;;3.70;;
11731;SDS011;5922;53.734;10.258;2023-08-06T07:28:43;7.23;;;4.03;;
11731;SDS011;5922;53.734;10.258;2023-08-06T07:31:16;9.77;;;3.90;;
11731;SDS011;5922;53.734;10.258;2023-08-06T07:34:01;4.80;;;3.63;;
11731;SDS011;5922;53.734;10.258;2023-08-06T07:36:57;7.50;;;4.20;;
11731;SDS011;5922;53.734;10.258;2023-08-06T07:39:31;6.37;;;4.13;;
11731;SDS011;5922;53.734;10.258;2023-08-06T07:41:58;6.83;;;3.93;;
11731;SDS011;5922;53.734;10.258;2023-08-06T07:44:27;8.73;;;4.47;;
11731;SDS011;5922;53.734;10.258;2023-08-06T07:47:02;7.13;;;4.17;;
11731;SDS011;5922;53.734;10.258;2023-08-06T07:49:33;4.30;;;3.90;;
11731;SDS011;5922;53.734;10.258;2023-08-06T07:52:00;6.37;;;4.20;;
11731;SDS011;5922;53.734;10.258;2023-08-06T07:54:27;6.63;;;4.30;;
11731;SDS011;5922;53.734;10.258;2023-08-06T07:56:54;6.70;;;4.07;;
11731;SDS011;5922;53.734;10.258;2023-08-06T07:59:22;7.27;;;4.00;;
11731;SDS011;5922;53.734;10.258;2023-08-06T08:01:49;5.70;;;4.03;;
11731;SDS011;5922;53.734;10.258;2023-08-06T08:04:16;7.63;;;4.60;;
11731;SDS011;5922;53.734;10.258;2023-08-06T08:06:45;4.00;;;3.60;;
11731;SDS011;5922;53.734;10.258;2023-08-06T08:09:12;6.70;;;3.90;;
11731;SDS011;5922;53.734;10.258;2023-08-06T08:11:40;5.03;;;4.30;;
11731;SDS011;5922;53.734;10.258;2023-08-06T08:14:07;8.27;;;4.37;;
11731;SDS011;5922;53.734;10.258;2023-08-06T08:16:34;8.43;;;4.23;;
11731;SDS011;5922;53.734;10.258;2023-08-06T08:19:02;7.63;;;4.07;;
11731;SDS011;5922;53.734;10.258;2023-08-06T08:21:29;10.90;;;4.43;;
11731;SDS011;5922;53.734;10.258;2023-08-06T08:23:58;4.63;;;4.13;;
11731;SDS011;5922;53.734;10.258;2023-08-06T08:26:25;7.03;;;4.23;;
11731;SDS011;5922;53.734;10.258;2023-08-06T08:28:53;5.80;;;4.37;;
11731;SDS011;5922;53.734;10.258;2023-08-06T08:31:21;7.33;;;4.43;;
11731;SDS011;5922;53.734;10.258;2023-08-06T08:33:48;5.97;;;4.43;;
11731;SDS011;5922;53.734;10.258;2023-08-06T08:36:15;5.80;;;4.37;;
11731;SDS011;5922;53.734;10.258;2023-08-06T08:38:42;7.63;;;4.30;;
11731;SDS011;5922;53.734;10.258;2023-08-06T08:41:11;4.87;;;3.97;;
11731;SDS011;5922;53.734;10.258;2023-08-06T08:43:39;5.50;;;4.17;;
11731;SDS011;5922;53.734;10.258;2023-08-06T08:46:07;6.43;;;4.37;;
11731;SDS011;5922;53.734;10.258;2023-08-06T08:48:35;8.10;;;4.60;;
11731;SDS011;5922;53.734;10.258;2023-08-06T08:51:03;5.93;;;4.33;;
11731;SDS011;5922;53.734;10.258;2023-08-06T08:53:31;9.57;;;4.23;;
11731;SDS011;5922;53.734;10.258;2023-08-06T08:55:58;11.10;;;4.63;;
11731;SDS011;5922;53.734;10.258;2023-08-06T08:58:27;7.37;;;4.33;;
11731;SDS011;5922;53.734;10.258;2023-08-06T09:00:57;7.03;;;4.30;;
11731;SDS011;5922;53.734;10.258;2023-08-06T09:03:24;8.33;;;4.90;;
11731;SDS011;5922;53.734;10.258;2023-08-06T09:05:53;4.97;;;4.33;;
11731;SDS011;5922;53.734;10.258;2023-08-06T09:08:21;6.67;;;4.43;;
11731;SDS011;5922;53.734;10.258;2023-08-06T09:10:53;5.57;;;4.27;;
11731;SDS011;5922;53.734;10.258;2023-08-06T09:13:24;6.27;;;4.13;;
11731;SDS011;5922;53.734;10.258;2023-08-06T09:15:53;7.30;;;4.40;;
11731;SDS011;5922;53.734;10.258;2023-08-06T09:18:24;5.17;;;4.40;;
11731;SDS011;5922;53.734;10.258;2023-08-06T09:20:55;6.20;;;4.30;;
11731;SDS011;5922;53.734;10.258;2023-08-06T09:23:27;4.87;;;4.23;;
11731;SDS011;5922;53.734;10.258;2023-08-06T09:25:55;6.87;;;4.40;;
11731;SDS011;5922;53.734;10.258;2023-08-06T09:28:23;7.70;;;4.57;;
11731;SDS011;5922;53.734;10.258;2023-08-06T09:30:52;8.03;;;4.70;;
11731;SDS011;5922;53.734;10.258;2023-08-06T09:33:26;6.93;;;4.97;;
11731;SDS011;5922;53.734;10.258;2023-08-06T09:35:56;6.80;;;4.60;;
11731;SDS011;5922;53.734;10.258;2023-08-06T09:38:24;5.57;;;4.47;;
11731;SDS011;5922;53.734;10.258;2023-08-06T09:40:52;6.37;;;4.60;;
11731;SDS011;5922;53.734;10.258;2023-08-06T09:45:55;8.60;;;4.63;;
11731;SDS011;5922;53.734;10.258;2023-08-06T09:48:27;6.07;;;4.63;;
11731;SDS011;5922;53.734;10.258;2023-08-06T09:50:54;6.10;;;4.87;;
11731;SDS011;5922;53.734;10.258;2023-08-06T09:53:22;6.77;;;4.63;;
11731;SDS011;5922;53.734;10.258;2023-08-06T09:55:50;9.37;;;4.77;;
11731;SDS011;5922;53.734;10.258;2023-08-06T09:58:17;6.60;;;4.60;;
11731;SDS011;5922;53.734;10.258;2023-08-06T10:00:44;6.87;;;4.70;;
11731;SDS011;5922;53.734;10.258;2023-08-06T10:03:12;6.17;;;5.07;;
11731;SDS011;5922;53.734;10.258;2023-08-06T10:05:44;6.97;;;4.43;;
11731;SDS011;5922;53.734;10.258;2023-08-06T10:08:11;5.60;;;4.50;;
11731;SDS011;5922;53.734;10.258;2023-08-06T10:10:39;8.33;;;4.77;;
11731;SDS011;5922;53.734;10.258;2023-08-06T10:13:11;7.03;;;4.83;;
11731;SDS011;5922;53.734;10.258;2023-08-06T10:15:41;7.27;;;4.77;;
11731;SDS011;5922;53.734;10.258;2023-08-06T10:18:13;7.67;;;4.90;;
11731;SDS011;5922;53.734;10.258;2023-08-06T10:20:56;5.60;;;4.33;;
11731;SDS011;5922;53.734;10.258;2023-08-06T10:23:33;9.63;;;4.47;;
11731;SDS011;5922;53.734;10.258;2023-08-06T10:26:11;7.97;;;5.37;;
11731;SDS011;5922;53.734;10.258;2023-08-06T10:28:43;8.13;;;5.30;;
11731;SDS011;5922;53.734;10.258;2023-08-06T10:34:46;6.33;;;4.87;;
11731;SDS011;5922;53.734;10.258;2023-08-06T10:46:34;5.77;;;4.73;;
11731;SDS011;5922;53.734;10.258;2023-08-06T10:49:34;4.70;;;4.20;;
11731;SDS011;5922;53.734;10.258;2023-08-06T10:55:22;7.67;;;5.20;;
11731;SDS011;5922;53.734;10.258;2023-08-06T11:00:51;5.57;;;4.63;;
11731;SDS011;5922;53.734;10.258;2023-08-06T11:15:45;5.53;;;4.70;;
11731;SDS011;5922;53.734;10.258;2023-08-06T11:18:38;7.17;;;4.83;;
11731;SDS011;5922;53.734;10.258;2023-08-06T11:21:34;6.17;;;4.67;;
11731;SDS011;5922;53.734;10.258;2023-08-06T11:24:16;4.80;;;4.30;;
11731;SDS011;5922;53.734;10.258;2023-08-06T11:26:44;4.80;;;4.30;;
11731;SDS011;5922;53.734;10.258;2023-08-06T11:29:11;5.90;;;4.10;;
11731;SDS011;5922;53.734;10.258;2023-08-06T11:31:40;7.20;;;4.50;;
11731;SDS011;5922;53.734;10.258;2023-08-06T11:34:10;5.47;;;4.80;;
11731;SDS011;5922;53.734;10.258;2023-08-06T11:36:39;4.90;;;4.07;;
11731;SDS011;5922;53.734;10.258;2023-08-06T11:39:08;6.27;;;5.13;;
11731;SDS011;5922;53.734;10.258;2023-08-06T11:41:38;6.23;;;5.10;;
11731;SDS011;5922;53.734;10.258;2023-08-06T11:44:07;5.97;;;5.07;;
11731;SDS011;5922;53.734;10.258;2023-08-06T11:46:52;7.17;;;5.30;;
11731;SDS011;5922;53.734;10.258;2023-08-06T11:49:21;8.33;;;5.27;;
11731;SDS011;5922;53.734;10.258;2023-08-06T11:52:15;6.40;;;4.87;;
11731;SDS011;5922;53.734;10.258;2023-08-06T11:54:46;7.20;;;5.40;;
11731;SDS011;5922;53.734;10.258;2023-08-06T11:57:15;7.30;;;4.80;;
11731;SDS011;5922;53.734;10.258;2023-08-06T11:59:43;8.47;;;5.70;;
11731;SDS011;5922;53.734;10.258;2023-08-06T12:02:11;5.93;;;4.93;;
11731;SDS011;5922;53.734;10.258;2023-08-06T12:04:57;7.20;;;5.07;;
11731;SDS011;5922;53.734;10.258;2023-08-06T12:07:26;6.07;;;4.30;;
11731;SDS011;5922;53.734;10.258;2023-08-06T12:09:53;7.93;;;4.47;;
11731;SDS011;5922;53.734;10.258;2023-08-06T12:12:20;4.57;;;3.30;;
11731;SDS011;5922;53.734;10.258;2023-08-06T12:14:47;6.30;;;3.57;;
11731;SDS011;5922;53.734;10.258;2023-08-06T12:17:16;4.47;;;2.57;;
11731;SDS011;5922;53.734;10.258;2023-08-06T12:19:46;4.30;;;2.70;;
11731;SDS011;5922;53.734;10.258;2023-08-06T12:22:16;4.00;;;2.43;;
11731;SDS011;5922;53.734;10.258;2023-08-06T12:24:43;3.23;;;2.60;;
11731;SDS011;5922;53.734;10.258;2023-08-06T12:27:11;4.10;;;2.30;;
11731;SDS011;5922;53.734;10.258;2023-08-06T12:29:40;3.07;;;2.53;;
11731;SDS011;5922;53.734;10.258;2023-08-06T12:32:09;3.80;;;2.60;;
11731;SDS011;5922;53.734;10.258;2023-08-06T12:34:38;3.70;;;2.50;;
11731;SDS011;5922;53.734;10.258;2023-08-06T12:37:06;5.60;;;2.37;;
11731;SDS011;5922;53.734;10.258;2023-08-06T12:39:33;5.30;;;2.67;;
11731;SDS011;5922;53.734;10.258;2023-08-06T12:42:01;6.13;;;2.87;;
11731;SDS011;5922;53.734;10.258;2023-08-06T12:44:28;6.13;;;2.70;;
11731;SDS011;5922;53.734;10.258;2023-08-06T12:46:55;3.50;;;2.70;;
11731;SDS011;5922;53.734;10.258;2023-08-06T12:49:25;4.40;;;2.60;;
11731;SDS011;5922;53.734;10.258;2023-08-06T12:51:55;7.67;;;2.83;;
11731;SDS011;5922;53.734;10.258;2023-08-06T12:54:24;3.57;;;2.37;;
11731;SDS011;5922;53.734;10.258;2023-08-06T12:56:55;4.60;;;2.60;;
11731;SDS011;5922;53.734;10.258;2023-08-06T12:59:27;3.87;;;2.67;;
11731;SDS011;5922;53.734;10.258;2023-08-06T13:02:03;6.80;;;3.10;;
11731;SDS011;5922;53.734;10.258;2023-08-06T13:04:31;4.70;;;2.90;;
11731;SDS011;5922;53.734;10.258;2023-08-06T13:07:09;4.60;;;3.13;;
11731;SDS011;5922;53.734;10.258;2023-08-06T13:09:47;5.20;;;2.47;;
11731;SDS011;5922;53.734;10.258;2023-08-06T13:12:15;5.97;;;2.83;;
11731;SDS011;5922;53.734;10.258;2023-08-06T13:14:49;2.70;;;2.50;;
11731;SDS011;5922;53.734;10.258;2023-08-06T13:17:18;6.20;;;3.13;;
11731;SDS011;5922;53.734;10.258;2023-08-06T13:19:48;7.97;;;3.10;;
11731;SDS011;5922;53.734;10.258;2023-08-06T13:22:16;4.37;;;2.87;;
11731;SDS011;5922;53.734;10.258;2023-08-06T13:24:44;3.43;;;2.70;;
11731;SDS011;5922;53.734;10.258;2023-08-06T13:27:11;3.67;;;2.50;;
11731;SDS011;5922;53.734;10.258;2023-08-06T13:29:38;4.40;;;2.73;;
11731;SDS011;5922;53.734;10.258;2023-08-06T13:32:14;4.00;;;2.33;;
11731;SDS011;5922;53.734;10.258;2023-08-06T13:34:42;6.70;;;2.80;;
11731;SDS011;5922;53.734;10.258;2023-08-06T13:37:14;4.57;;;2.60;;
11731;SDS011;5922;53.734;10.258;2023-08-06T13:39:43;2.80;;;2.30;;
11731;SDS011;5922;53.734;10.258;2023-08-06T13:42:10;3.13;;;2.20;;
11731;SDS011;5922;53.734;10.258;2023-08-06T13:44:38;3.27;;;2.00;;
11731;SDS011;5922;53.734;10.258;2023-08-06T13:47:05;3.03;;;2.30;;
11731;SDS011;5922;53.734;10.258;2023-08-06T13:49:32;3.53;;;2.40;;
11731;SDS011;5922;53.734;10.258;2023-08-06T13:51:59;7.10;;;2.27;;
11731;SDS011;5922;53.734;10.258;2023-08-06T13:54:27;6.00;;;2.30;;
11731;SDS011;5922;53.734;10.258;2023-08-06T13:56:56;3.57;;;2.10;;
11731;SDS011;5922;53.734;10.258;2023-08-06T13:59:23;4.30;;;2.00;;
11731;SDS011;5922;53.734;10.258;2023-08-06T14:01:51;8.40;;;2.17;;
11731;SDS011;5922;53.734;10.258;2023-08-06T14:04:22;5.40;;;2.07;;
11731;SDS011;5922;53.734;10.258;2023-08-06T14:06:49;4.43;;;2.10;;
11731;SDS011;5922;53.734;10.258;2023-08-06T14:09:19;2.00;;;1.80;;
11731;SDS011;5922;53.734;10.258;2023-08-06T14:11:52;2.00;;;1.83;;
11731;SDS011;5922;53.734;10.258;2023-08-06T14:14:21;2.67;;;2.37;;
11731;SDS011;5922;53.734;10.258;2023-08-06T14:16:52;3.47;;;1.87;;
11731;SDS011;5922;53.734;10.258;2023-08-06T14:19:19;4.07;;;2.00;;
11731;SDS011;5922;53.734;10.258;2023-08-06T14:21:47;2.20;;;2.00;;
11731;SDS011;5922;53.734;10.258;2023-08-06T14:24:14;3.60;;;2.27;;
11731;SDS011;5922;53.734;10.258;2023-08-06T14:26:41;4.70;;;2.30;;
11731;SDS011;5922;53.734;10.258;2023-08-06T14:29:22;5.30;;;2.40;;
11731;SDS011;5922;53.734;10.258;2023-08-06T14:32:05;3.00;;;2.13;;
11731;SDS011;5922;53.734;10.258;2023-08-06T14:34:40;2.87;;;2.27;;
11731;SDS011;5922;53.734;10.258;2023-08-06T14:38:00;3.20;;;2.37;;
11731;SDS011;5922;53.734;10.258;2023-08-06T14:40:27;2.23;;;1.93;;
11731;SDS011;5922;53.734;10.258;2023-08-06T14:43:01;4.37;;;2.60;;
11731;SDS011;5922;53.734;10.258;2023-08-06T14:45:44;4.13;;;1.87;;
11731;SDS011;5922;53.734;10.258;2023-08-06T14:48:33;3.80;;;2.13;;
11731;SDS011;5922;53.734;10.258;2023-08-06T14:54:28;4.53;;;2.30;;
11731;SDS011;5922;53.734;10.258;2023-08-06T15:00:48;3.57;;;2.57;;
11731;SDS011;5922;53.734;10.258;2023-08-06T15:03:23;5.87;;;2.30;;
11731;SDS011;5922;53.734;10.258;2023-08-06T15:09:17;3.47;;;2.70;;
11731;SDS011;5922;53.734;10.258;2023-08-06T15:15:07;3.73;;;2.63;;
11731;SDS011;5922;53.734;10.258;2023-08-06T15:17:48;3.17;;;2.67;;
11731;SDS011;5922;53.734;10.258;2023-08-06T15:20:38;3.50;;;2.47;;
11731;SDS011;5922;53.734;10.258;2023-08-06T15:25:57;4.17;;;3.77;;
11731;SDS011;5922;53.734;10.258;2023-08-06T15:28:24;4.33;;;3.90;;
11731;SDS011;5922;53.734;10.258;2023-08-06T15:31:17;5.50;;;3.33;;
11731;SDS011;5922;53.734;10.258;2023-08-06T16:47:18;5.23;;;3.03;;
11731;SDS011;5922;53.734;10.258;2023-08-06T16:49:45;4.17;;;2.93;;
11731;SDS011;5922;53.734;10.258;2023-08-06T16:52:13;4.67;;;3.07;;
11731;SDS011;5922;53.734;10.258;2023-08-06T16:54:40;3.50;;;2.80;;
11731;SDS011;5922;53.734;10.258;2023-08-06T16:57:07;3.80;;;2.87;;
11731;SDS011;5922;53.734;10.258;2023-08-06T16:59:34;5.37;;;2.73;;
11731;SDS011;5922;53.734;10.258;2023-08-06T17:02:02;3.10;;;2.80;;
11731;SDS011;5922;53.734;10.258;2023-08-06T17:04:32;4.90;;;2.70;;
11731;SDS011;5922;53.734;10.258;2023-08-06T17:06:59;3.23;;;2.30;;
11731;SDS011;5922;53.734;10.258;2023-08-06T17:09:26;4.83;;;3.43;;
11731;SDS011;5922;53.734;10.258;2023-08-06T17:11:54;6.43;;;3.10;;
11731;SDS011;5922;53.734;10.258;2023-08-06T17:14:23;2.60;;;2.40;;
11731;SDS011;5922;53.734;10.258;2023-08-06T17:16:51;5.73;;;3.07;;
11731;SDS011;5922;53.734;10.258;2023-08-06T17:19:23;3.67;;;2.93;;